Flight Track Log - Related Links

Times and Time Zones

All times are in EDT time to prevent confusion due to time zone crossing. See the ACA555 flight status page for this flight to view local times or setup timezone preferences in your user account.

Time Position Orientation Groundspeed Altitude Reporting Facility
EDT Latitude Longitude Course Direction KTS MPH feet Rate Location/Type
Sun 05:31:04 PM 33.9500 -118.4667 338° Northwest 160 184 1,700  Level Southern California TRACON
Sun 05:32:04 PM 33.9333 -118.5333 253° West 225 259 3,700 2,426 Climbing Southern California TRACON
Sun 05:33:00 PM 34.1521 -118.6239 22° Northeast  Level FlightAware Approximate
Sun 05:33:25 PM 33.9442 -118.6544 276° West 268 308 7,400  Level Los Angeles Center
Sun 05:34:00 PM 34.2684 -118.6000 North  Level FlightAware Approximate
Sun 05:34:27 PM 34.0181 -118.6678 351° North 282 325 8,400  Level Los Angeles Center
Sun 05:35:00 PM 34.3792 -118.6479 338° Northwest  Level FlightAware Approximate
Sun 05:35:29 PM 34.0969 -118.6583 North 283 326 9,000  Level Los Angeles Center
Sun 05:36:00 PM 34.4903 -118.7035 338° Northwest  Level FlightAware Approximate
Sun 05:36:31 PM 34.1797 -118.6492 North 283 326 11,400  Level Los Angeles Center
Sun 05:37:33 PM 34.2611 -118.6692 349° North 295 339 13,200 1,935 Climbing Los Angeles Center
Sun 05:38:35 PM 34.3583 -118.6892 350° North 349 402 15,400 2,160 Climbing Los Angeles Center
Sun 05:39:38 PM 34.4603 -118.7103 350° North 367 422 17,700 2,064 Climbing Los Angeles Center
Sun 05:40:40 PM 34.5636 -118.7375 348° North 378 435 19,700 2,081 Climbing Los Angeles Center
Sun 05:41:42 PM 34.6842 -118.8028 336° Northwest 399 459 22,000 2,081 Climbing Los Angeles Center
Sun 05:42:44 PM 34.7872 -118.8542 338° Northwest 398 458 24,000 1,694 Climbing Los Angeles Center
Sun 05:43:46 PM 34.9078 -118.8844 348° North 411 473 25,500 1,403 Climbing Los Angeles Center
Sun 05:44:48 PM 35.0225 -118.9097 350° North 417 480 26,900 1,210 Climbing Los Angeles Center
Sun 05:45:50 PM 35.1431 -118.9342 351° North 434 499 28,000 1,210 Climbing Los Angeles Center
Sun 05:46:52 PM 35.2658 -118.9600 350° North 443 510 29,400 1,016 Climbing Los Angeles Center
Sun 05:47:54 PM 35.3878 -118.9856 350° North 447 514 30,100 1,008 Climbing Los Angeles Center
Sun 05:48:57 PM 35.5081 -119.0103 351° North 445 512 31,500 1,344 Climbing Los Angeles Center
Sun 05:49:59 PM 35.6514 -119.0417 350° North 440 506 32,900 1,258 Climbing Los Angeles Center
Sun 05:51:01 PM 35.7706 -119.0681 350° North 439 505 34,100 1,065 Climbing Los Angeles Center
Sun 05:52:03 PM 35.8872 -119.0931 350° North 433 498 35,100 919 Climbing Los Angeles Center
Sun 05:53:05 PM 36.0047 -119.1181 350° North 432 497 36,000 871 Climbing Los Angeles Center
Sun 05:54:07 PM 36.1211 -119.1450 349° North 430 495 36,900 677 Climbing Los Angeles Center
Sun 05:55:09 PM 36.2597 -119.1744 350° North 426 490 37,400 435 Climbing Los Angeles Center
Sun 05:56:11 PM 36.3775 -119.2017 349° North 430 495 37,800 290 Climbing Los Angeles Center
Sun 05:57:13 PM 36.4953 -119.2269 350° North 430 495 38,000 96 Climbing Los Angeles Center
Sun 05:58:16 PM 36.6169 -119.2539 350° North 440 506 38,000  Level Los Angeles Center
Sun 05:59:18 PM 36.7394 -119.2819 350° North 446 513 38,000  Level Los Angeles Center
Sun 06:00:44 PM 36.9325 -119.3231 350° North 445 512 38,000  Level Oakland Center
Sun 06:01:46 PM 37.0544 -119.3503 350° North 445 512 38,000  Level Oakland Center
Sun 06:02:47 PM 37.1772 -119.3778 350° North 446 513 38,000  Level Oakland Center
Sun 06:03:49 PM 37.2986 -119.4061 349° North 446 513 38,000  Level Oakland Center
Sun 06:04:50 PM 37.4217 -119.4328 350° North 447 514 38,000  Level Oakland Center
Sun 06:05:52 PM 37.5444 -119.4611 350° North 448 516 38,000  Level Oakland Center
Sun 06:06:53 PM 37.6908 -119.4933 350° North 450 518 38,000  Level Oakland Center
Sun 06:07:55 PM 37.8128 -119.5214 350° North 449 517 38,000  Level Oakland Center
Sun 06:08:56 PM 37.9378 -119.5478 351° North 451 519 38,000  Level Oakland Center
Sun 06:09:58 PM 38.0600 -119.5761 350° North 451 519 38,000  Level Oakland Center
Sun 06:10:59 PM 38.1808 -119.6053 349° North 449 517 38,000  Level Oakland Center
Sun 06:12:01 PM 38.3028 -119.6339 350° North 448 516 38,000  Level Oakland Center
Sun 06:13:03 PM 38.4414 -119.6650 350° North 446 513 38,000  Level Oakland Center
Sun 06:14:04 PM 38.5619 -119.6931 350° North 443 510 38,000  Level Oakland Center
Sun 06:15:06 PM 38.6828 -119.7219 349° North 442 509 38,000  Level Oakland Center
Sun 06:16:07 PM 38.8025 -119.7497 350° North 441 507 38,000  Level Oakland Center
Sun 06:17:09 PM 38.9231 -119.7775 350° North 441 507 38,000  Level Oakland Center
Sun 06:18:10 PM 39.0442 -119.8067 349° North 441 507 38,000  Level Oakland Center
Sun 06:19:12 PM 39.1647 -119.8353 350° North 441 507 38,000  Level Oakland Center
Sun 06:20:13 PM 39.2861 -119.8639 350° North 441 507 38,000  Level Oakland Center
Sun 06:21:15 PM 39.4044 -119.8928 349° North 438 504 38,000  Level Oakland Center
Sun 06:22:16 PM 39.5469 -119.9264 350° North 434 499 38,000  Level Oakland Center
Sun 06:23:18 PM 39.6658 -119.9550 350° North 434 499 38,000  Level Oakland Center
Sun 06:24:19 PM 39.7850 -119.9850 349° North 434 499 38,000  Level Oakland Center
Sun 06:25:21 PM 39.9033 -120.0125 350° North 434 499 38,000  Level Oakland Center
Sun 06:26:23 PM 40.0239 -120.0406 350° North 434 499 38,000  Level Oakland Center
Sun 06:27:24 PM 40.1433 -120.0683 350° North 437 503 38,000  Level Oakland Center
Sun 06:28:26 PM 40.2625 -120.0969 350° North 437 503 38,000  Level Oakland Center
Sun 06:29:27 PM 40.3800 -120.1264 349° North 435 501 38,000  Level Oakland Center
Sun 06:30:20 PM 40.4933 -120.1572 348° North 433 498 38,000  Level Seattle Center
Sun 06:31:21 PM 40.6100 -120.1858 349° North 429 494 38,000  Level Seattle Center
Sun 06:32:22 PM 40.7283 -120.2156 349° North 430 495 38,000  Level Seattle Center
Sun 06:33:23 PM 40.8461 -120.2458 349° North 431 496 38,000  Level Seattle Center
Sun 06:34:24 PM 40.9644 -120.2753 349° North 432 497 38,000  Level Seattle Center
Sun 06:35:24 PM 41.0831 -120.3042 350° North 432 497 38,000  Level Seattle Center
Sun 06:36:25 PM 41.2008 -120.3347 349° North 433 498 38,000  Level Seattle Center
Sun 06:37:26 PM 41.3206 -120.3650 349° North 434 499 38,000  Level Seattle Center
Sun 06:38:27 PM 41.4625 -120.3975 350° North 435 501 38,000  Level Seattle Center
Sun 06:39:28 PM 41.5783 -120.4281 349° North 427 491 38,000  Level Seattle Center
Sun 06:40:29 PM 41.6925 -120.4575 349° North 424 488 38,000  Level Seattle Center
Sun 06:41:30 PM 41.8056 -120.4892 348° North 420 483 38,000  Level Seattle Center
Sun 06:42:31 PM 41.9222 -120.5186 349° North 423 487 38,000  Level Seattle Center
Sun 06:43:32 PM 42.0394 -120.5478 350° North 426 490 38,000  Level Seattle Center
Sun 06:44:32 PM 42.1539 -120.5781 349° North 424 488 38,000  Level Seattle Center
Sun 06:45:33 PM 42.2692 -120.6089 349° North 422 486 38,000  Level Seattle Center
Sun 06:46:34 PM 42.3842 -120.6389 349° North 421 484 38,000  Level Seattle Center
Sun 06:47:35 PM 42.4989 -120.6692 349° North 423 487 38,000  Level Seattle Center
Sun 06:48:36 PM 42.6144 -120.6994 349° North 424 488 38,000  Level Seattle Center
Sun 06:49:37 PM 42.7300 -120.7297 349° North 424 488 38,000  Level Seattle Center
Sun 06:50:38 PM 42.8672 -120.7683 348° North 423 487 38,000  Level Seattle Center
Sun 06:51:39 PM 42.9817 -120.7997 349° North 422 486 38,000  Level Seattle Center
Sun 06:52:40 PM 43.0986 -120.8325 348° North 425 489 38,000  Level Seattle Center
Sun 06:53:41 PM 43.2144 -120.8631 349° North 426 490 38,000  Level Seattle Center
Sun 06:54:42 PM 43.3281 -120.8969 348° North 423 487 38,000  Level Seattle Center
Sun 06:55:43 PM 43.4431 -120.9269 349° North 423 487 38,000  Level Seattle Center
Sun 06:56:43 PM 43.5583 -120.9603 348° North 423 487 38,000  Level Seattle Center
Sun 06:57:44 PM 43.6747 -120.9875 350° North 424 488 38,000  Level Seattle Center
Sun 06:58:45 PM 43.7908 -121.0211 348° North 425 489 38,000  Level Seattle Center
Sun 06:59:47 PM 43.9075 -121.0550 348° North 425 489 38,000  Level Seattle Center
Sun 07:00:48 PM 44.0253 -121.0889 348° North 426 490 38,000  Level Seattle Center
Sun 07:01:49 PM 44.1442 -121.1231 348° North 432 497 38,000  Level Seattle Center
Sun 07:02:49 PM 44.2631 -121.1575 348° North 433 498 38,000  Level Seattle Center
Sun 07:03:50 PM 44.3869 -121.1931 348° North 433 498 38,000  Level Seattle Center
Sun 07:04:51 PM 44.5044 -121.2267 348° North 433 498 38,000  Level Seattle Center
Sun 07:05:52 PM 44.6211 -121.2614 348° North 431 496 38,000  Level Seattle Center
Sun 07:06:53 PM 44.7361 -121.2942 349° North 426 490 38,000  Level Seattle Center
Sun 07:07:54 PM 44.8767 -121.3358 348° North 427 491 38,000  Level Seattle Center
Sun 07:08:55 PM 44.9881 -121.3678 349° North 428 493 38,000  Level Seattle Center
Sun 07:09:56 PM 45.1067 -121.4028 348° North 430 495 38,000  Level Seattle Center
Sun 07:10:56 PM 45.2256 -121.4364 349° North 431 496 38,000  Level Seattle Center
Sun 07:11:57 PM 45.3461 -121.4722 348° North 437 503 38,000  Level Seattle Center
Sun 07:12:58 PM 45.4656 -121.5075 348° North 438 504 38,000  Level Seattle Center
Sun 07:13:59 PM 45.5875 -121.5447 348° North 442 509 38,000  Level Seattle Center
Sun 07:15:00 PM 45.7106 -121.5811 348° North 448 516 38,000  Level Seattle Center
Sun 07:16:01 PM 45.8331 -121.6189 348° North 451 519 38,000  Level Seattle Center
Sun 07:17:02 PM 45.9564 -121.6550 348° North 451 519 38,000  Level Seattle Center
Sun 07:18:02 PM 46.0778 -121.6933 348° North 449 517 38,000  Level Seattle Center
Sun 07:19:03 PM 46.1994 -121.7297 348° North 448 516 38,000  Level Seattle Center
Sun 07:20:04 PM 46.3325 -121.7717 348° North 444 511 38,000  Level Seattle Center
Sun 07:21:05 PM 46.4522 -121.8081 348° North 442 509 38,000  Level Seattle Center
Sun 07:22:06 PM 46.5719 -121.8458 348° North 442 509 38,000  Level Seattle Center
Sun 07:23:07 PM 46.6922 -121.8817 348° North 442 509 38,000  Level Seattle Center
Sun 07:24:08 PM 46.8117 -121.9197 348° North 441 507 38,000  Level Seattle Center
Sun 07:25:09 PM 46.9308 -121.9578 348° North 441 507 38,000  Level Seattle Center
Sun 07:26:10 PM 47.0511 -121.9978 347° North 442 509 38,000  Level Seattle Center
Sun 07:27:10 PM 47.1708 -122.0339 348° North 442 509 38,000  Level Seattle Center
Sun 07:28:11 PM 47.3144 -122.0819 347° North 442 509 38,000  Level Seattle Center
Sun 07:29:12 PM 47.4344 -122.1197 348° North 442 509 38,000 -443 Level Seattle Center
Sun 07:30:13 PM 47.5542 -122.1603 347° North 443 510 37,100 -1,672 Descending Seattle Center
Sun 07:31:14 PM 47.6725 -122.1967 348° North 443 510 34,600 -2,508 Descending Seattle Center
Sun 07:32:15 PM 47.7928 -122.2353 348° North 449 517 32,000 -2,557 Descending Seattle Center
Sun 07:33:16 PM 47.9106 -122.2756 347° North 445 512 29,400 -2,557 Descending Seattle Center
Sun 07:34:17 PM 48.0278 -122.3097 349° North 437 503 26,800 -2,508 Descending Seattle Center
Sun 07:35:18 PM 48.1422 -122.3433 349° North 424 488 24,300 -2,727 Descending Seattle Center
Sun 07:36:18 PM 48.2753 -122.3825 349° North 413 475 21,300 -2,628 Descending Seattle Center
Sun 07:37:19 PM 48.3822 -122.4119 350° North 400 460 19,000 -2,164 Descending Seattle Center
Sun 07:38:20 PM 48.4850 -122.4425 349° North 384 442 16,900 -2,213 Descending Seattle Center
Sun 07:39:21 PM 48.5842 -122.4728 349° North 372 428 14,500 -2,213 Descending Seattle Center
Sun 07:40:22 PM 48.6800 -122.5014 349° North 360 414 12,400 -1,230 Descending Seattle Center
Sun 07:41:23 PM 48.7525 -122.5803 324° Northwest 334 384 12,000 -541 Descending Seattle Center
Sun 07:42:24 PM 48.8094 -122.6783 311° West 319 367 11,300 -863 Descending Seattle Center
Sun 07:43:42 PM 48.8667 -122.8167 302° West 290 334 10,000 -565 Descending Vancouver Center
Sun 07:44:42 PM 48.9167 -122.8833 319° Northwest 290 334 10,000 -400 Level Vancouver Center
Sun 07:45:42 PM 48.9667 -122.9833 307° West 290 334 9,200 -1,250 Descending Vancouver Center
Sun 07:46:42 PM 49.0167 -123.0833 307° West 280 322 7,500 -1,350 Descending Vancouver Center
Sun 07:47:42 PM 49.0667 -123.1667 312° West 270 311 6,500 -1,250 Descending Vancouver Center
Sun 07:48:42 PM 49.0833 -123.2667 284° West 270 311 5,000 -1,500 Descending Vancouver Center
Sun 07:49:42 PM 49.1167 -123.3833 294° West 270 311 3,500 -1,150 Descending Vancouver Center
Sun 07:50:42 PM 49.1500 -123.4667 301° West 260 299 2,700 -750 Descending Vancouver Center
Sun 07:51:42 PM 49.2000 -123.4333 24° Northeast 220 253 2,000 -350 Descending Vancouver Center
Sun 07:52:42 PM 49.2000 -123.3667 90° East 180 207 2,000 -300 Level Vancouver Center
Sun 07:53:42 PM 49.2000 -123.2833 90° East 160 184 1,400 -750 Descending Vancouver Center
Sun 07:54:42 PM 49.1833 -123.2333 117° Southeast 140 161 500 -900 Descending Vancouver Center

Login

Don't have an account? Register now (free) for customized features, flight alerts, and more!